sensor_id;sensor_type;location;lat;lon;timestamp;P1;durP1;ratioP1;P2;durP2;ratioP2
22318;SDS011;11327;52.334;9.506;2023-04-09T00:02:28;26.68;;;17.73;;
22318;SDS011;11327;52.334;9.506;2023-04-09T00:05:49;28.83;;;18.12;;
22318;SDS011;11327;52.334;9.506;2023-04-09T00:09:09;28.17;;;16.73;;
22318;SDS011;11327;52.334;9.506;2023-04-09T00:12:30;33.53;;;17.90;;
22318;SDS011;11327;52.334;9.506;2023-04-09T00:15:51;39.13;;;20.92;;
22318;SDS011;11327;52.334;9.506;2023-04-09T00:19:11;38.20;;;21.00;;
22318;SDS011;11327;52.334;9.506;2023-04-09T00:22:32;37.60;;;21.02;;
22318;SDS011;11327;52.334;9.506;2023-04-09T00:25:53;47.62;;;24.65;;
22318;SDS011;11327;52.334;9.506;2023-04-09T00:29:14;101.82;;;43.87;;
22318;SDS011;11327;52.334;9.506;2023-04-09T00:32:34;73.30;;;31.68;;
22318;SDS011;11327;52.334;9.506;2023-04-09T00:35:55;42.98;;;22.07;;
22318;SDS011;11327;52.334;9.506;2023-04-09T00:39:16;43.02;;;21.80;;
22318;SDS011;11327;52.334;9.506;2023-04-09T00:42:37;41.50;;;22.00;;
22318;SDS011;11327;52.334;9.506;2023-04-09T00:45:57;41.30;;;22.17;;
22318;SDS011;11327;52.334;9.506;2023-04-09T00:49:20;39.90;;;21.73;;
22318;SDS011;11327;52.334;9.506;2023-04-09T00:52:41;39.90;;;22.87;;
22318;SDS011;11327;52.334;9.506;2023-04-09T00:56:02;41.68;;;22.80;;
22318;SDS011;11327;52.334;9.506;2023-04-09T00:59:24;41.02;;;22.27;;
22318;SDS011;11327;52.334;9.506;2023-04-09T01:02:45;47.78;;;24.85;;
22318;SDS011;11327;52.334;9.506;2023-04-09T01:06:09;45.20;;;25.32;;
22318;SDS011;11327;52.334;9.506;2023-04-09T01:09:35;46.00;;;23.60;;
22318;SDS011;11327;52.334;9.506;2023-04-09T01:16:37;48.58;;;26.70;;
22318;SDS011;11327;52.334;9.506;2023-04-09T01:20:08;51.45;;;27.70;;
22318;SDS011;11327;52.334;9.506;2023-04-09T01:23:45;59.48;;;30.57;;
22318;SDS011;11327;52.334;9.506;2023-04-09T01:27:25;63.78;;;34.63;;
22318;SDS011;11327;52.334;9.506;2023-04-09T01:30:51;58.70;;;33.53;;
22318;SDS011;11327;52.334;9.506;2023-04-09T01:34:14;58.75;;;33.05;;
22318;SDS011;11327;52.334;9.506;2023-04-09T01:37:36;65.22;;;35.95;;
22318;SDS011;11327;52.334;9.506;2023-04-09T01:40:59;64.07;;;35.30;;
22318;SDS011;11327;52.334;9.506;2023-04-09T01:44:22;63.98;;;34.90;;
22318;SDS011;11327;52.334;9.506;2023-04-09T01:47:45;59.77;;;33.92;;
22318;SDS011;11327;52.334;9.506;2023-04-09T01:51:06;64.72;;;36.00;;
22318;SDS011;11327;52.334;9.506;2023-04-09T01:54:27;63.98;;;35.98;;
22318;SDS011;11327;52.334;9.506;2023-04-09T01:57:48;65.55;;;37.15;;
22318;SDS011;11327;52.334;9.506;2023-04-09T02:01:10;66.53;;;34.98;;
22318;SDS011;11327;52.334;9.506;2023-04-09T02:04:46;61.53;;;35.77;;
22318;SDS011;11327;52.334;9.506;2023-04-09T02:08:09;68.85;;;37.45;;
22318;SDS011;11327;52.334;9.506;2023-04-09T02:11:33;64.03;;;35.70;;
22318;SDS011;11327;52.334;9.506;2023-04-09T02:14:56;67.70;;;37.50;;
22318;SDS011;11327;52.334;9.506;2023-04-09T02:18:22;63.55;;;36.50;;
22318;SDS011;11327;52.334;9.506;2023-04-09T02:21:46;67.75;;;38.23;;
22318;SDS011;11327;52.334;9.506;2023-04-09T02:25:07;62.75;;;36.20;;
22318;SDS011;11327;52.334;9.506;2023-04-09T02:28:28;64.55;;;38.05;;
22318;SDS011;11327;52.334;9.506;2023-04-09T02:31:48;65.00;;;36.23;;
22318;SDS011;11327;52.334;9.506;2023-04-09T02:35:11;58.00;;;34.58;;
22318;SDS011;11327;52.334;9.506;2023-04-09T02:38:32;58.83;;;36.10;;
22318;SDS011;11327;52.334;9.506;2023-04-09T02:41:52;59.10;;;35.90;;
22318;SDS011;11327;52.334;9.506;2023-04-09T02:45:13;63.13;;;37.35;;
22318;SDS011;11327;52.334;9.506;2023-04-09T02:48:34;57.80;;;35.65;;
22318;SDS011;11327;52.334;9.506;2023-04-09T02:51:55;58.42;;;35.40;;
22318;SDS011;11327;52.334;9.506;2023-04-09T02:55:16;59.53;;;35.45;;
22318;SDS011;11327;52.334;9.506;2023-04-09T02:58:38;61.80;;;36.80;;
22318;SDS011;11327;52.334;9.506;2023-04-09T03:01:58;58.38;;;34.60;;
22318;SDS011;11327;52.334;9.506;2023-04-09T03:05:19;53.58;;;33.25;;
22318;SDS011;11327;52.334;9.506;2023-04-09T03:08:40;50.40;;;32.35;;
22318;SDS011;11327;52.334;9.506;2023-04-09T03:12:01;51.60;;;32.70;;
22318;SDS011;11327;52.334;9.506;2023-04-09T03:15:22;55.38;;;33.78;;
22318;SDS011;11327;52.334;9.506;2023-04-09T03:18:43;52.00;;;31.82;;
22318;SDS011;11327;52.334;9.506;2023-04-09T03:22:03;52.70;;;32.95;;
22318;SDS011;11327;52.334;9.506;2023-04-09T03:25:24;53.00;;;32.70;;
22318;SDS011;11327;52.334;9.506;2023-04-09T03:28:45;50.35;;;32.10;;
22318;SDS011;11327;52.334;9.506;2023-04-09T03:32:05;53.95;;;33.80;;
22318;SDS011;11327;52.334;9.506;2023-04-09T03:35:26;52.27;;;32.85;;
22318;SDS011;11327;52.334;9.506;2023-04-09T03:38:47;51.45;;;32.85;;
22318;SDS011;11327;52.334;9.506;2023-04-09T03:42:08;54.85;;;32.20;;
22318;SDS011;11327;52.334;9.506;2023-04-09T03:45:28;47.58;;;31.00;;
22318;SDS011;11327;52.334;9.506;2023-04-09T03:48:49;47.53;;;30.05;;
22318;SDS011;11327;52.334;9.506;2023-04-09T03:52:10;46.63;;;30.55;;
22318;SDS011;11327;52.334;9.506;2023-04-09T03:55:31;42.88;;;27.93;;
22318;SDS011;11327;52.334;9.506;2023-04-09T03:58:52;41.63;;;28.30;;
22318;SDS011;11327;52.334;9.506;2023-04-09T04:02:12;41.73;;;27.02;;
22318;SDS011;11327;52.334;9.506;2023-04-09T04:05:33;39.88;;;27.82;;
22318;SDS011;11327;52.334;9.506;2023-04-09T04:08:54;43.87;;;27.82;;
22318;SDS011;11327;52.334;9.506;2023-04-09T04:12:15;39.10;;;25.77;;
22318;SDS011;11327;52.334;9.506;2023-04-09T04:15:39;42.62;;;27.65;;
22318;SDS011;11327;52.334;9.506;2023-04-09T04:19:01;38.73;;;26.17;;
22318;SDS011;11327;52.334;9.506;2023-04-09T04:22:22;40.00;;;26.05;;
22318;SDS011;11327;52.334;9.506;2023-04-09T04:25:42;37.88;;;26.10;;
22318;SDS011;11327;52.334;9.506;2023-04-09T04:29:03;38.67;;;25.72;;
22318;SDS011;11327;52.334;9.506;2023-04-09T04:32:24;43.52;;;26.55;;
22318;SDS011;11327;52.334;9.506;2023-04-09T04:35:46;36.70;;;25.57;;
22318;SDS011;11327;52.334;9.506;2023-04-09T04:39:07;40.90;;;27.48;;
22318;SDS011;11327;52.334;9.506;2023-04-09T04:42:27;42.67;;;27.15;;
22318;SDS011;11327;52.334;9.506;2023-04-09T04:45:48;39.65;;;25.68;;
22318;SDS011;11327;52.334;9.506;2023-04-09T04:49:09;36.73;;;25.25;;
22318;SDS011;11327;52.334;9.506;2023-04-09T04:52:29;39.67;;;27.02;;
22318;SDS011;11327;52.334;9.506;2023-04-09T04:55:50;41.77;;;25.52;;
22318;SDS011;11327;52.334;9.506;2023-04-09T04:59:11;48.78;;;26.02;;
22318;SDS011;11327;52.334;9.506;2023-04-09T05:02:31;38.83;;;24.98;;
22318;SDS011;11327;52.334;9.506;2023-04-09T05:05:52;37.60;;;25.20;;
22318;SDS011;11327;52.334;9.506;2023-04-09T05:09:13;39.75;;;26.65;;
22318;SDS011;11327;52.334;9.506;2023-04-09T05:12:33;35.08;;;24.02;;
22318;SDS011;11327;52.334;9.506;2023-04-09T05:15:54;38.00;;;25.77;;
22318;SDS011;11327;52.334;9.506;2023-04-09T05:19:15;35.08;;;24.40;;
22318;SDS011;11327;52.334;9.506;2023-04-09T05:22:36;54.50;;;26.27;;
22318;SDS011;11327;52.334;9.506;2023-04-09T05:25:57;39.38;;;25.70;;
22318;SDS011;11327;52.334;9.506;2023-04-09T05:29:18;38.30;;;26.12;;
22318;SDS011;11327;52.334;9.506;2023-04-09T05:32:38;39.48;;;25.17;;
22318;SDS011;11327;52.334;9.506;2023-04-09T05:35:59;38.05;;;24.80;;
22318;SDS011;11327;52.334;9.506;2023-04-09T05:39:20;43.08;;;27.55;;
22318;SDS011;11327;52.334;9.506;2023-04-09T05:42:41;43.55;;;25.90;;
22318;SDS011;11327;52.334;9.506;2023-04-09T05:46:02;54.08;;;26.68;;
22318;SDS011;11327;52.334;9.506;2023-04-09T05:49:23;45.75;;;25.70;;
22318;SDS011;11327;52.334;9.506;2023-04-09T05:52:44;49.55;;;25.72;;
22318;SDS011;11327;52.334;9.506;2023-04-09T05:56:11;38.10;;;25.68;;
22318;SDS011;11327;52.334;9.506;2023-04-09T05:59:34;40.08;;;26.33;;
22318;SDS011;11327;52.334;9.506;2023-04-09T06:02:55;35.52;;;25.50;;
22318;SDS011;11327;52.334;9.506;2023-04-09T06:06:16;41.88;;;27.70;;
22318;SDS011;11327;52.334;9.506;2023-04-09T06:09:36;41.00;;;26.82;;
22318;SDS011;11327;52.334;9.506;2023-04-09T06:12:57;38.60;;;26.80;;
22318;SDS011;11327;52.334;9.506;2023-04-09T06:16:18;44.73;;;27.90;;
22318;SDS011;11327;52.334;9.506;2023-04-09T06:19:39;42.17;;;26.75;;
22318;SDS011;11327;52.334;9.506;2023-04-09T06:22:59;40.80;;;26.75;;
22318;SDS011;11327;52.334;9.506;2023-04-09T06:26:20;44.08;;;25.70;;
22318;SDS011;11327;52.334;9.506;2023-04-09T06:29:41;42.35;;;26.55;;
22318;SDS011;11327;52.334;9.506;2023-04-09T06:33:01;49.55;;;28.77;;
22318;SDS011;11327;52.334;9.506;2023-04-09T06:36:23;43.73;;;26.23;;
22318;SDS011;11327;52.334;9.506;2023-04-09T06:39:44;50.43;;;28.87;;
22318;SDS011;11327;52.334;9.506;2023-04-09T06:43:05;49.40;;;29.20;;
22318;SDS011;11327;52.334;9.506;2023-04-09T06:46:26;55.90;;;30.72;;
22318;SDS011;11327;52.334;9.506;2023-04-09T06:49:47;81.50;;;40.92;;
22318;SDS011;11327;52.334;9.506;2023-04-09T06:53:07;74.97;;;39.83;;
22318;SDS011;11327;52.334;9.506;2023-04-09T06:56:28;68.07;;;37.55;;
22318;SDS011;11327;52.334;9.506;2023-04-09T06:59:49;68.52;;;37.55;;
22318;SDS011;11327;52.334;9.506;2023-04-09T07:03:09;60.88;;;33.78;;
22318;SDS011;11327;52.334;9.506;2023-04-09T07:06:30;55.88;;;33.45;;
22318;SDS011;11327;52.334;9.506;2023-04-09T07:09:51;55.48;;;31.73;;
22318;SDS011;11327;52.334;9.506;2023-04-09T07:13:12;51.13;;;29.37;;
22318;SDS011;11327;52.334;9.506;2023-04-09T07:16:33;50.58;;;28.07;;
22318;SDS011;11327;52.334;9.506;2023-04-09T07:19:54;49.25;;;27.52;;
22318;SDS011;11327;52.334;9.506;2023-04-09T07:23:15;43.87;;;26.07;;
22318;SDS011;11327;52.334;9.506;2023-04-09T07:26:36;44.98;;;25.50;;
22318;SDS011;11327;52.334;9.506;2023-04-09T07:29:57;45.20;;;26.93;;
22318;SDS011;11327;52.334;9.506;2023-04-09T07:33:19;47.50;;;27.07;;
22318;SDS011;11327;52.334;9.506;2023-04-09T07:36:39;48.35;;;26.40;;
22318;SDS011;11327;52.334;9.506;2023-04-09T07:40:02;45.10;;;26.05;;
22318;SDS011;11327;52.334;9.506;2023-04-09T07:43:23;46.75;;;25.85;;
22318;SDS011;11327;52.334;9.506;2023-04-09T07:46:44;44.35;;;25.90;;
22318;SDS011;11327;52.334;9.506;2023-04-09T07:50:05;44.30;;;26.85;;
22318;SDS011;11327;52.334;9.506;2023-04-09T07:53:28;47.45;;;27.15;;
22318;SDS011;11327;52.334;9.506;2023-04-09T07:56:48;46.58;;;26.27;;
22318;SDS011;11327;52.334;9.506;2023-04-09T08:00:09;43.38;;;24.82;;
22318;SDS011;11327;52.334;9.506;2023-04-09T08:03:31;43.55;;;25.35;;
22318;SDS011;11327;52.334;9.506;2023-04-09T08:06:52;45.12;;;25.08;;
22318;SDS011;11327;52.334;9.506;2023-04-09T08:10:13;45.55;;;24.25;;
22318;SDS011;11327;52.334;9.506;2023-04-09T08:13:35;41.55;;;24.30;;
22318;SDS011;11327;52.334;9.506;2023-04-09T08:16:56;43.75;;;24.52;;
22318;SDS011;11327;52.334;9.506;2023-04-09T08:20:17;42.08;;;23.12;;
22318;SDS011;11327;52.334;9.506;2023-04-09T08:23:38;45.50;;;24.67;;
22318;SDS011;11327;52.334;9.506;2023-04-09T08:26:58;43.48;;;23.42;;
22318;SDS011;11327;52.334;9.506;2023-04-09T08:30:21;46.48;;;25.40;;
22318;SDS011;11327;52.334;9.506;2023-04-09T08:33:41;44.30;;;25.12;;
22318;SDS011;11327;52.334;9.506;2023-04-09T08:37:02;45.98;;;25.40;;
22318;SDS011;11327;52.334;9.506;2023-04-09T08:40:23;45.88;;;25.30;;
22318;SDS011;11327;52.334;9.506;2023-04-09T08:43:45;44.42;;;24.70;;
22318;SDS011;11327;52.334;9.506;2023-04-09T08:47:07;43.90;;;24.02;;
22318;SDS011;11327;52.334;9.506;2023-04-09T08:50:30;45.73;;;24.32;;
22318;SDS011;11327;52.334;9.506;2023-04-09T08:57:17;39.92;;;21.55;;
22318;SDS011;11327;52.334;9.506;2023-04-09T09:00:38;41.10;;;22.50;;
22318;SDS011;11327;52.334;9.506;2023-04-09T09:04:02;43.92;;;23.57;;
22318;SDS011;11327;52.334;9.506;2023-04-09T09:07:27;42.98;;;23.83;;
22318;SDS011;11327;52.334;9.506;2023-04-09T09:10:51;46.23;;;25.10;;
22318;SDS011;11327;52.334;9.506;2023-04-09T09:14:13;42.60;;;23.80;;
22318;SDS011;11327;52.334;9.506;2023-04-09T09:17:42;45.88;;;24.23;;
22318;SDS011;11327;52.334;9.506;2023-04-09T09:21:13;45.03;;;24.43;;
22318;SDS011;11327;52.334;9.506;2023-04-09T09:24:44;43.20;;;23.70;;
22318;SDS011;11327;52.334;9.506;2023-04-09T09:28:09;40.48;;;23.02;;
22318;SDS011;11327;52.334;9.506;2023-04-09T09:31:31;41.68;;;23.55;;
22318;SDS011;11327;52.334;9.506;2023-04-09T09:35:02;43.02;;;24.32;;
22318;SDS011;11327;52.334;9.506;2023-04-09T09:38:25;41.60;;;23.15;;
22318;SDS011;11327;52.334;9.506;2023-04-09T09:41:46;41.00;;;24.30;;
22318;SDS011;11327;52.334;9.506;2023-04-09T09:45:17;42.17;;;24.70;;
22318;SDS011;11327;52.334;9.506;2023-04-09T09:48:37;42.30;;;24.45;;
22318;SDS011;11327;52.334;9.506;2023-04-09T09:51:59;41.70;;;23.85;;
22318;SDS011;11327;52.334;9.506;2023-04-09T09:55:22;41.75;;;23.87;;
22318;SDS011;11327;52.334;9.506;2023-04-09T09:58:51;41.20;;;24.40;;
22318;SDS011;11327;52.334;9.506;2023-04-09T10:02:23;44.38;;;25.72;;
22318;SDS011;11327;52.334;9.506;2023-04-09T10:05:48;43.70;;;25.60;;
22318;SDS011;11327;52.334;9.506;2023-04-09T10:09:12;40.55;;;25.32;;
22318;SDS011;11327;52.334;9.506;2023-04-09T10:12:33;40.83;;;24.85;;
22318;SDS011;11327;52.334;9.506;2023-04-09T10:15:54;42.10;;;25.80;;
22318;SDS011;11327;52.334;9.506;2023-04-09T10:19:15;46.80;;;28.15;;
22318;SDS011;11327;52.334;9.506;2023-04-09T10:22:36;42.17;;;25.92;;
22318;SDS011;11327;52.334;9.506;2023-04-09T10:25:59;41.75;;;25.12;;
22318;SDS011;11327;52.334;9.506;2023-04-09T10:29:26;41.92;;;24.87;;
22318;SDS011;11327;52.334;9.506;2023-04-09T10:32:49;39.50;;;24.18;;
22318;SDS011;11327;52.334;9.506;2023-04-09T10:36:10;39.75;;;23.83;;
22318;SDS011;11327;52.334;9.506;2023-04-09T10:39:32;39.45;;;25.12;;
22318;SDS011;11327;52.334;9.506;2023-04-09T10:42:53;39.88;;;24.12;;
22318;SDS011;11327;52.334;9.506;2023-04-09T10:49:52;37.17;;;23.05;;
22318;SDS011;11327;52.334;9.506;2023-04-09T10:53:21;38.78;;;24.67;;
22318;SDS011;11327;52.334;9.506;2023-04-09T10:57:08;36.60;;;23.45;;
22318;SDS011;11327;52.334;9.506;2023-04-09T11:00:24;40.25;;;25.12;;
22318;SDS011;11327;52.334;9.506;2023-04-09T11:03:45;39.03;;;24.00;;
22318;SDS011;11327;52.334;9.506;2023-04-09T11:07:08;37.10;;;24.55;;
22318;SDS011;11327;52.334;9.506;2023-04-09T11:10:29;37.33;;;23.73;;
22318;SDS011;11327;52.334;9.506;2023-04-09T11:13:56;39.33;;;25.25;;
22318;SDS011;11327;52.334;9.506;2023-04-09T11:17:15;38.20;;;24.98;;
22318;SDS011;11327;52.334;9.506;2023-04-09T11:20:37;39.05;;;26.20;;
22318;SDS011;11327;52.334;9.506;2023-04-09T11:23:59;40.70;;;27.73;;
22318;SDS011;11327;52.334;9.506;2023-04-09T11:27:19;43.08;;;28.32;;
22318;SDS011;11327;52.334;9.506;2023-04-09T11:30:41;40.88;;;26.95;;
22318;SDS011;11327;52.334;9.506;2023-04-09T11:34:03;41.55;;;28.27;;
22318;SDS011;11327;52.334;9.506;2023-04-09T11:37:23;43.15;;;29.30;;
22318;SDS011;11327;52.334;9.506;2023-04-09T11:40:44;42.93;;;29.67;;
22318;SDS011;11327;52.334;9.506;2023-04-09T11:44:07;48.78;;;31.73;;
22318;SDS011;11327;52.334;9.506;2023-04-09T11:47:28;52.90;;;35.85;;
22318;SDS011;11327;52.334;9.506;2023-04-09T11:50:49;56.05;;;36.38;;
22318;SDS011;11327;52.334;9.506;2023-04-09T11:54:10;55.52;;;36.68;;
22318;SDS011;11327;52.334;9.506;2023-04-09T11:57:48;58.17;;;37.45;;
22318;SDS011;11327;52.334;9.506;2023-04-09T12:01:06;58.38;;;36.48;;
22318;SDS011;11327;52.334;9.506;2023-04-09T12:04:27;56.00;;;36.90;;
22318;SDS011;11327;52.334;9.506;2023-04-09T12:07:47;55.05;;;34.13;;
22318;SDS011;11327;52.334;9.506;2023-04-09T12:11:14;51.08;;;32.73;;
22318;SDS011;11327;52.334;9.506;2023-04-09T12:14:35;46.63;;;31.25;;
22318;SDS011;11327;52.334;9.506;2023-04-09T12:17:56;50.70;;;31.90;;
22318;SDS011;11327;52.334;9.506;2023-04-09T12:21:17;46.42;;;31.02;;
22318;SDS011;11327;52.334;9.506;2023-04-09T12:24:38;48.17;;;30.92;;
22318;SDS011;11327;52.334;9.506;2023-04-09T12:27:58;51.42;;;32.30;;
22318;SDS011;11327;52.334;9.506;2023-04-09T12:31:19;49.88;;;31.57;;
22318;SDS011;11327;52.334;9.506;2023-04-09T12:34:40;54.20;;;32.40;;
22318;SDS011;11327;52.334;9.506;2023-04-09T12:38:01;50.73;;;31.23;;
22318;SDS011;11327;52.334;9.506;2023-04-09T12:41:22;50.25;;;30.97;;
22318;SDS011;11327;52.334;9.506;2023-04-09T12:44:43;51.33;;;31.05;;
22318;SDS011;11327;52.334;9.506;2023-04-09T12:48:04;45.63;;;28.47;;
22318;SDS011;11327;52.334;9.506;2023-04-09T12:51:25;45.10;;;28.35;;
22318;SDS011;11327;52.334;9.506;2023-04-09T12:54:45;40.38;;;26.33;;
22318;SDS011;11327;52.334;9.506;2023-04-09T12:58:06;44.23;;;27.37;;
22318;SDS011;11327;52.334;9.506;2023-04-09T13:01:27;37.93;;;24.32;;
22318;SDS011;11327;52.334;9.506;2023-04-09T13:04:48;37.73;;;25.25;;
22318;SDS011;11327;52.334;9.506;2023-04-09T13:08:10;38.53;;;25.05;;
22318;SDS011;11327;52.334;9.506;2023-04-09T13:11:31;36.55;;;23.77;;
22318;SDS011;11327;52.334;9.506;2023-04-09T13:14:53;35.52;;;24.10;;
22318;SDS011;11327;52.334;9.506;2023-04-09T13:18:14;34.88;;;23.22;;
22318;SDS011;11327;52.334;9.506;2023-04-09T13:21:34;33.10;;;22.70;;
22318;SDS011;11327;52.334;9.506;2023-04-09T13:24:56;34.70;;;22.85;;
22318;SDS011;11327;52.334;9.506;2023-04-09T13:28:16;39.20;;;25.52;;
22318;SDS011;11327;52.334;9.506;2023-04-09T13:31:37;38.55;;;24.60;;
22318;SDS011;11327;52.334;9.506;2023-04-09T13:34:58;37.20;;;24.75;;
22318;SDS011;11327;52.334;9.506;2023-04-09T13:38:18;37.70;;;25.32;;
22318;SDS011;11327;52.334;9.506;2023-04-09T13:41:39;40.00;;;26.20;;
22318;SDS011;11327;52.334;9.506;2023-04-09T13:45:00;40.63;;;27.00;;
22318;SDS011;11327;52.334;9.506;2023-04-09T13:48:20;39.27;;;26.48;;
22318;SDS011;11327;52.334;9.506;2023-04-09T13:51:41;41.30;;;27.52;;
22318;SDS011;11327;52.334;9.506;2023-04-09T13:55:02;43.35;;;28.55;;
22318;SDS011;11327;52.334;9.506;2023-04-09T13:58:24;46.02;;;29.63;;
22318;SDS011;11327;52.334;9.506;2023-04-09T14:01:45;42.80;;;28.35;;
22318;SDS011;11327;52.334;9.506;2023-04-09T14:05:05;41.92;;;27.60;;
22318;SDS011;11327;52.334;9.506;2023-04-09T14:08:28;42.03;;;27.50;;
22318;SDS011;11327;52.334;9.506;2023-04-09T14:11:49;40.85;;;26.55;;
22318;SDS011;11327;52.334;9.506;2023-04-09T14:15:10;37.38;;;25.02;;
22318;SDS011;11327;52.334;9.506;2023-04-09T14:18:31;36.70;;;24.32;;
22318;SDS011;11327;52.334;9.506;2023-04-09T14:21:52;39.38;;;25.40;;
22318;SDS011;11327;52.334;9.506;2023-04-09T14:25:14;33.98;;;22.02;;
22318;SDS011;11327;52.334;9.506;2023-04-09T14:28:35;34.63;;;23.80;;
22318;SDS011;11327;52.334;9.506;2023-04-09T14:31:57;36.93;;;24.30;;
22318;SDS011;11327;52.334;9.506;2023-04-09T14:35:19;34.58;;;23.70;;
22318;SDS011;11327;52.334;9.506;2023-04-09T14:38:40;32.90;;;22.60;;
22318;SDS011;11327;52.334;9.506;2023-04-09T14:42:01;35.00;;;22.62;;
22318;SDS011;11327;52.334;9.506;2023-04-09T14:45:22;31.97;;;21.37;;
22318;SDS011;11327;52.334;9.506;2023-04-09T14:48:42;31.48;;;21.97;;
22318;SDS011;11327;52.334;9.506;2023-04-09T14:52:03;31.55;;;21.85;;
22318;SDS011;11327;52.334;9.506;2023-04-09T14:55:24;30.10;;;20.95;;
22318;SDS011;11327;52.334;9.506;2023-04-09T14:58:46;28.07;;;20.15;;
22318;SDS011;11327;52.334;9.506;2023-04-09T15:02:06;28.07;;;19.55;;
22318;SDS011;11327;52.334;9.506;2023-04-09T15:05:27;28.80;;;20.05;;
22318;SDS011;11327;52.334;9.506;2023-04-09T15:08:48;28.25;;;20.32;;
22318;SDS011;11327;52.334;9.506;2023-04-09T15:12:08;28.17;;;20.05;;
22318;SDS011;11327;52.334;9.506;2023-04-09T15:15:29;30.08;;;20.55;;
22318;SDS011;11327;52.334;9.506;2023-04-09T15:18:50;30.32;;;20.77;;
22318;SDS011;11327;52.334;9.506;2023-04-09T15:22:11;27.87;;;19.37;;
22318;SDS011;11327;52.334;9.506;2023-04-09T15:25:31;28.17;;;18.73;;
22318;SDS011;11327;52.334;9.506;2023-04-09T15:28:55;28.17;;;19.10;;
22318;SDS011;11327;52.334;9.506;2023-04-09T15:32:20;25.32;;;18.20;;
22318;SDS011;11327;52.334;9.506;2023-04-09T15:35:40;25.82;;;18.42;;
22318;SDS011;11327;52.334;9.506;2023-04-09T15:39:02;23.52;;;16.97;;
22318;SDS011;11327;52.334;9.506;2023-04-09T15:42:23;26.37;;;18.30;;
22318;SDS011;11327;52.334;9.506;2023-04-09T15:45:45;20.92;;;15.68;;
22318;SDS011;11327;52.334;9.506;2023-04-09T15:49:07;22.07;;;16.25;;
22318;SDS011;11327;52.334;9.506;2023-04-09T15:52:29;20.45;;;14.95;;
22318;SDS011;11327;52.334;9.506;2023-04-09T15:55:51;20.88;;;15.18;;
22318;SDS011;11327;52.334;9.506;2023-04-09T15:59:12;20.70;;;15.10;;
22318;SDS011;11327;52.334;9.506;2023-04-09T16:02:33;18.20;;;13.83;;
22318;SDS011;11327;52.334;9.506;2023-04-09T16:05:56;17.80;;;12.85;;
22318;SDS011;11327;52.334;9.506;2023-04-09T16:09:16;19.52;;;14.18;;
22318;SDS011;11327;52.334;9.506;2023-04-09T16:12:37;17.30;;;13.50;;
22318;SDS011;11327;52.334;9.506;2023-04-09T16:15:58;16.80;;;12.60;;
22318;SDS011;11327;52.334;9.506;2023-04-09T16:19:19;15.83;;;12.13;;
22318;SDS011;11327;52.334;9.506;2023-04-09T16:22:40;13.98;;;11.22;;
22318;SDS011;11327;52.334;9.506;2023-04-09T16:26:01;15.45;;;11.73;;
22318;SDS011;11327;52.334;9.506;2023-04-09T16:29:22;15.58;;;11.65;;
22318;SDS011;11327;52.334;9.506;2023-04-09T16:32:43;16.55;;;12.58;;
22318;SDS011;11327;52.334;9.506;2023-04-09T16:36:04;17.95;;;13.13;;
22318;SDS011;11327;52.334;9.506;2023-04-09T16:39:25;15.15;;;11.75;;
22318;SDS011;11327;52.334;9.506;2023-04-09T16:42:46;17.00;;;11.97;;
22318;SDS011;11327;52.334;9.506;2023-04-09T16:46:06;16.10;;;12.13;;
22318;SDS011;11327;52.334;9.506;2023-04-09T16:49:27;15.95;;;11.22;;
22318;SDS011;11327;52.334;9.506;2023-04-09T16:52:48;18.40;;;12.50;;
22318;SDS011;11327;52.334;9.506;2023-04-09T16:56:09;20.08;;;14.55;;
22318;SDS011;11327;52.334;9.506;2023-04-09T16:59:30;22.25;;;15.90;;
22318;SDS011;11327;52.334;9.506;2023-04-09T17:02:50;23.10;;;15.35;;
22318;SDS011;11327;52.334;9.506;2023-04-09T17:06:11;20.02;;;14.35;;
22318;SDS011;11327;52.334;9.506;2023-04-09T17:09:32;24.12;;;16.48;;
22318;SDS011;11327;52.334;9.506;2023-04-09T17:12:53;22.93;;;16.50;;
22318;SDS011;11327;52.334;9.506;2023-04-09T17:16:14;22.55;;;16.25;;
22318;SDS011;11327;52.334;9.506;2023-04-09T17:19:35;20.27;;;14.73;;
22318;SDS011;11327;52.334;9.506;2023-04-09T17:22:56;21.42;;;14.43;;
22318;SDS011;11327;52.334;9.506;2023-04-09T17:26:17;20.72;;;14.73;;
22318;SDS011;11327;52.334;9.506;2023-04-09T17:29:38;22.52;;;15.30;;
22318;SDS011;11327;52.334;9.506;2023-04-09T17:33:00;21.48;;;15.05;;
22318;SDS011;11327;52.334;9.506;2023-04-09T17:36:21;25.92;;;17.05;;
22318;SDS011;11327;52.334;9.506;2023-04-09T17:39:44;22.13;;;14.90;;
22318;SDS011;11327;52.334;9.506;2023-04-09T17:43:05;19.07;;;13.00;;
22318;SDS011;11327;52.334;9.506;2023-04-09T17:46:27;20.48;;;14.40;;
22318;SDS011;11327;52.334;9.506;2023-04-09T17:49:48;22.15;;;14.20;;
22318;SDS011;11327;52.334;9.506;2023-04-09T17:53:08;20.57;;;14.20;;
22318;SDS011;11327;52.334;9.506;2023-04-09T17:56:29;18.37;;;13.20;;
22318;SDS011;11327;52.334;9.506;2023-04-09T17:59:50;22.07;;;15.93;;
22318;SDS011;11327;52.334;9.506;2023-04-09T18:03:11;20.52;;;14.80;;
22318;SDS011;11327;52.334;9.506;2023-04-09T18:06:32;21.75;;;15.38;;
22318;SDS011;11327;52.334;9.506;2023-04-09T18:09:52;25.88;;;17.62;;
22318;SDS011;11327;52.334;9.506;2023-04-09T18:13:13;25.88;;;17.70;;
22318;SDS011;11327;52.334;9.506;2023-04-09T18:16:34;24.43;;;16.87;;
22318;SDS011;11327;52.334;9.506;2023-04-09T18:19:57;23.22;;;15.72;;
22318;SDS011;11327;52.334;9.506;2023-04-09T18:23:18;23.15;;;15.78;;
22318;SDS011;11327;52.334;9.506;2023-04-09T18:26:38;22.20;;;15.95;;
22318;SDS011;11327;52.334;9.506;2023-04-09T18:29:59;24.80;;;16.85;;
22318;SDS011;11327;52.334;9.506;2023-04-09T18:33:20;23.12;;;15.70;;
22318;SDS011;11327;52.334;9.506;2023-04-09T18:36:41;24.75;;;16.75;;
22318;SDS011;11327;52.334;9.506;2023-04-09T18:40:02;25.65;;;16.90;;
22318;SDS011;11327;52.334;9.506;2023-04-09T18:43:23;22.32;;;15.38;;
22318;SDS011;11327;52.334;9.506;2023-04-09T18:46:44;23.50;;;15.70;;
22318;SDS011;11327;52.334;9.506;2023-04-09T18:50:06;24.02;;;15.95;;
22318;SDS011;11327;52.334;9.506;2023-04-09T18:53:27;23.05;;;15.88;;
22318;SDS011;11327;52.334;9.506;2023-04-09T18:56:48;23.98;;;16.97;;
22318;SDS011;11327;52.334;9.506;2023-04-09T19:00:08;26.40;;;17.27;;
22318;SDS011;11327;52.334;9.506;2023-04-09T19:03:30;26.50;;;18.35;;
22318;SDS011;11327;52.334;9.506;2023-04-09T19:06:50;27.27;;;17.40;;
22318;SDS011;11327;52.334;9.506;2023-04-09T19:10:11;27.15;;;17.17;;
22318;SDS011;11327;52.334;9.506;2023-04-09T19:13:32;26.65;;;17.90;;
22318;SDS011;11327;52.334;9.506;2023-04-09T19:16:53;26.80;;;18.05;;
22318;SDS011;11327;52.334;9.506;2023-04-09T19:20:14;25.40;;;17.75;;
22318;SDS011;11327;52.334;9.506;2023-04-09T19:23:35;27.48;;;18.67;;
22318;SDS011;11327;52.334;9.506;2023-04-09T19:26:56;28.77;;;18.62;;
22318;SDS011;11327;52.334;9.506;2023-04-09T19:30:17;32.20;;;19.73;;
22318;SDS011;11327;52.334;9.506;2023-04-09T19:33:37;36.42;;;21.90;;
22318;SDS011;11327;52.334;9.506;2023-04-09T19:36:58;31.57;;;20.50;;
22318;SDS011;11327;52.334;9.506;2023-04-09T19:40:19;28.10;;;18.37;;
22318;SDS011;11327;52.334;9.506;2023-04-09T19:43:39;27.58;;;18.05;;
22318;SDS011;11327;52.334;9.506;2023-04-09T19:47:01;28.23;;;18.77;;
22318;SDS011;11327;52.334;9.506;2023-04-09T19:50:22;25.00;;;17.20;;